createdAt,value
2018-02-16T00:02:19.108Z,303.60
2018-02-16T00:04:51.623Z,202.63
2018-02-16T00:07:24.167Z,207.90
2018-02-16T00:09:56.695Z,237.00
2018-02-16T00:12:29.254Z,128.63
2018-02-16T00:15:01.810Z,345.80
2018-02-16T00:17:34.349Z,305.00
2018-02-16T00:20:06.874Z,108.97
2018-02-16T00:22:39.434Z,314.17
2018-02-16T00:25:12.022Z,87.93
2018-02-16T00:27:44.594Z,82.37
2018-02-16T00:30:17.102Z,102.67
2018-02-16T00:32:49.646Z,198.87
2018-02-16T00:35:22.240Z,74.20
2018-02-16T00:37:54.810Z,92.40
2018-02-16T00:40:27.337Z,65.03
2018-02-16T00:42:59.910Z,145.43
2018-02-16T00:45:32.445Z,68.40
2018-02-16T00:48:05.004Z,74.13
2018-02-16T00:50:37.542Z,329.83
2018-02-16T00:53:10.091Z,77.33
2018-02-16T00:55:42.612Z,67.27
2018-02-16T00:58:15.151Z,65.93
2018-02-16T01:00:47.689Z,271.73
2018-02-16T01:03:20.232Z,129.57
2018-02-16T01:05:52.754Z,86.30
2018-02-16T01:08:25.314Z,319.33
2018-02-16T01:10:57.865Z,148.97
2018-02-16T01:13:30.425Z,538.77
2018-02-16T01:16:02.970Z,107.83
2018-02-16T01:18:35.516Z,363.80
2018-02-16T01:21:08.031Z,207.90
2018-02-16T01:23:40.571Z,99.47
2018-02-16T01:26:13.091Z,78.40
2018-02-16T01:28:45.626Z,97.07
2018-02-16T01:31:18.183Z,145.83
2018-02-16T01:33:50.796Z,190.47
2018-02-16T01:36:23.331Z,111.20
2018-02-16T01:38:55.875Z,91.27
2018-02-16T01:41:28.406Z,170.00
2018-02-16T01:44:00.943Z,233.27
2018-02-16T01:46:33.494Z,218.57
2018-02-16T01:49:06.045Z,606.07
2018-02-16T01:51:38.558Z,726.90
2018-02-16T01:54:11.119Z,161.50
2018-02-16T01:56:43.643Z,232.93
2018-02-16T01:59:16.183Z,201.97
2018-02-16T02:01:49.740Z,197.33
2018-02-16T02:04:22.288Z,109.10
2018-02-16T02:06:54.811Z,213.70
2018-02-16T02:09:27.391Z,317.13
2018-02-16T02:11:59.922Z,242.30
2018-02-16T02:14:32.477Z,114.83
2018-02-16T02:17:05.009Z,250.97
2018-02-16T02:19:37.585Z,324.63
2018-02-16T02:22:10.163Z,351.73
2018-02-16T02:24:42.667Z,178.17
2018-02-16T02:27:15.225Z,187.53
2018-02-16T02:29:47.793Z,228.87
2018-02-16T02:32:20.322Z,152.93
2018-02-16T02:34:52.892Z,224.63
2018-02-16T02:37:25.426Z,220.57
2018-02-16T02:39:57.975Z,358.13
2018-02-16T02:42:30.503Z,276.30
2018-02-16T02:45:03.078Z,309.23
2018-02-16T02:47:35.655Z,211.87
2018-02-16T02:50:08.192Z,243.30
2018-02-16T02:52:40.753Z,180.13
2018-02-16T02:55:13.328Z,216.70
2018-02-16T02:57:45.905Z,273.63
2018-02-16T03:00:18.455Z,197.73
2018-02-16T03:02:50.993Z,182.57
2018-02-16T03:05:23.511Z,174.37
2018-02-16T03:07:56.054Z,82.20
2018-02-16T03:10:28.580Z,114.30
2018-02-16T03:13:01.134Z,124.20
2018-02-16T03:15:33.651Z,126.53
2018-02-16T03:18:06.203Z,137.30
2018-02-16T03:20:38.724Z,119.67
2018-02-16T03:23:11.281Z,105.20
2018-02-16T03:25:43.817Z,149.13
2018-02-16T03:28:16.353Z,84.30
2018-02-16T03:30:48.885Z,165.60
2018-02-16T03:33:21.435Z,155.77
2018-02-16T03:35:53.968Z,418.57
2018-02-16T03:38:26.519Z,181.70
2018-02-16T03:40:59.031Z,78.90
2018-02-16T03:43:31.593Z,155.90
2018-02-16T03:46:09.505Z,199.07
2018-02-16T03:48:42.045Z,234.63
2018-02-16T03:51:14.623Z,102.27
2018-02-16T03:53:47.139Z,212.47
2018-02-16T03:56:19.664Z,71.73
2018-02-16T03:58:52.220Z,127.10
2018-02-16T04:01:24.780Z,144.60
2018-02-16T04:03:57.323Z,243.47
2018-02-16T04:06:29.867Z,214.73
2018-02-16T04:09:02.420Z,160.93
2018-02-16T04:11:34.938Z,90.03
2018-02-16T04:14:07.480Z,138.30
2018-02-16T04:16:40.017Z,183.83
2018-02-16T04:19:12.555Z,171.10
2018-02-16T04:21:45.087Z,118.37
2018-02-16T04:24:17.639Z,113.97
2018-02-16T04:26:50.159Z,81.97
2018-02-16T04:29:22.696Z,100.33
2018-02-16T04:31:55.235Z,191.10
2018-02-16T04:34:27.781Z,224.10
2018-02-16T04:37:00.323Z,96.40
2018-02-16T04:39:32.856Z,84.00
2018-02-16T04:42:05.372Z,72.30
2018-02-16T04:44:37.919Z,94.13
2018-02-16T04:47:10.454Z,187.67
2018-02-16T04:49:43.000Z,191.10
2018-02-16T04:52:15.532Z,76.10
2018-02-16T04:54:48.084Z,138.73
2018-02-16T04:57:20.618Z,144.50
2018-02-16T04:59:53.164Z,119.20
2018-02-16T05:02:25.720Z,183.83
2018-02-16T05:04:58.278Z,83.87
2018-02-16T05:07:30.811Z,124.00
2018-02-16T05:10:03.367Z,70.23
2018-02-16T05:12:35.917Z,201.00
2018-02-16T05:15:08.463Z,60.57
2018-02-16T05:17:40.974Z,118.47
2018-02-16T05:20:18.251Z,85.50
2018-02-16T05:22:50.792Z,64.73
2018-02-16T05:25:23.318Z,79.53
2018-02-16T05:27:55.834Z,225.67
2018-02-16T05:30:28.355Z,90.83
2018-02-16T05:33:00.887Z,103.47
2018-02-16T05:35:33.413Z,100.90
2018-02-16T05:38:05.934Z,100.97
2018-02-16T05:40:38.460Z,78.67
2018-02-16T05:43:10.971Z,245.40
2018-02-16T05:45:43.509Z,69.07
2018-02-16T05:48:16.017Z,105.23
2018-02-16T05:50:48.553Z,79.30
2018-02-16T05:53:21.071Z,77.37
2018-02-16T05:55:53.597Z,88.27
2018-02-16T05:58:26.116Z,326.57
2018-02-16T06:00:58.674Z,67.63
2018-02-16T06:03:31.180Z,79.60
2018-02-16T06:06:03.716Z,144.50
2018-02-16T06:08:36.224Z,80.23
2018-02-16T06:11:08.754Z,93.80
2018-02-16T06:13:41.267Z,77.97
2018-02-16T06:16:13.792Z,76.30
2018-02-16T06:18:46.297Z,104.63
2018-02-16T06:21:18.822Z,74.73
2018-02-16T06:23:51.355Z,134.57
2018-02-16T06:26:23.880Z,87.73
2018-02-16T06:28:56.426Z,114.23
2018-02-16T06:31:28.935Z,155.37
2018-02-16T06:34:01.488Z,81.40
2018-02-16T06:36:34.008Z,103.87
2018-02-16T06:39:06.540Z,71.63
2018-02-16T06:41:39.049Z,68.80
2018-02-16T06:44:11.583Z,79.67
2018-02-16T06:46:44.090Z,89.03
2018-02-16T06:49:16.610Z,91.70
2018-02-16T06:51:49.135Z,253.50
2018-02-16T06:54:21.662Z,96.23
2018-02-16T06:56:54.159Z,94.03
2018-02-16T06:59:26.685Z,81.07
2018-02-16T07:01:59.192Z,77.23
2018-02-16T07:04:31.725Z,191.90
2018-02-16T07:07:04.238Z,78.20
2018-02-16T07:09:36.782Z,113.77
2018-02-16T07:12:09.299Z,190.20
2018-02-16T07:14:41.831Z,115.87
2018-02-16T07:17:14.358Z,90.80
2018-02-16T07:19:46.895Z,175.60
2018-02-16T07:22:19.424Z,133.67
2018-02-16T07:24:51.963Z,141.27
2018-02-16T07:27:24.480Z,77.00
2018-02-16T07:29:57.026Z,118.47
2018-02-16T07:32:29.540Z,112.57
2018-02-16T07:35:02.080Z,78.57
2018-02-16T07:37:34.600Z,180.47
2018-02-16T07:40:07.137Z,247.53
2018-02-16T07:42:39.644Z,128.30
2018-02-16T07:45:12.174Z,214.60
2018-02-16T07:47:44.716Z,84.57
2018-02-16T07:50:17.251Z,107.97
2018-02-16T07:52:49.764Z,66.23
2018-02-16T07:55:22.293Z,84.97
2018-02-16T07:57:54.803Z,108.53
2018-02-16T08:00:27.331Z,185.93
2018-02-16T08:02:59.842Z,117.83
2018-02-16T08:05:32.391Z,106.37
2018-02-16T08:08:04.895Z,133.17
2018-02-16T08:10:37.417Z,72.13
2018-02-16T08:13:09.941Z,65.30
2018-02-16T08:15:42.458Z,97.27
2018-02-16T08:18:14.958Z,79.47
2018-02-16T08:20:47.480Z,94.30
2018-02-16T08:23:19.993Z,87.83
2018-02-16T08:25:52.515Z,118.03
2018-02-16T08:28:25.026Z,96.27
2018-02-16T08:30:57.560Z,89.53
2018-02-16T08:33:30.060Z,90.87
2018-02-16T08:36:02.605Z,84.90
2018-02-16T08:38:35.128Z,83.00
2018-02-16T08:41:07.657Z,96.43
2018-02-16T08:43:40.173Z,111.30
2018-02-16T08:46:12.699Z,59.60
2018-02-16T08:48:45.206Z,63.03
2018-02-16T08:51:17.749Z,72.27
2018-02-16T08:53:50.268Z,62.70
2018-02-16T08:56:22.796Z,84.27
2018-02-16T08:58:55.304Z,91.70
2018-02-16T09:01:27.834Z,64.93
2018-02-16T09:04:00.350Z,83.33
2018-02-16T09:06:32.935Z,74.17
2018-02-16T09:09:05.457Z,82.50
2018-02-16T09:11:37.979Z,67.33
2018-02-16T09:14:10.484Z,60.30
2018-02-16T09:16:43.021Z,72.53
2018-02-16T09:19:15.518Z,59.20
2018-02-16T09:21:48.038Z,87.40
2018-02-16T09:24:20.554Z,89.70
2018-02-16T09:26:53.113Z,69.60
2018-02-16T09:29:25.650Z,62.53
2018-02-16T09:31:58.183Z,53.43
2018-02-16T09:34:30.692Z,67.37
2018-02-16T09:37:03.227Z,65.93
2018-02-16T09:39:47.270Z,66.60
2018-02-16T09:42:19.799Z,67.77
2018-02-16T09:44:52.329Z,60.40
2018-02-16T09:47:24.856Z,66.57
2018-02-16T09:49:57.443Z,59.13
2018-02-16T09:52:29.944Z,63.73
2018-02-16T09:55:03.419Z,54.20
2018-02-16T09:57:35.946Z,44.00
2018-02-16T10:00:08.482Z,49.37
2018-02-16T10:02:40.997Z,52.93
2018-02-16T10:05:13.540Z,44.93
2018-02-16T10:07:46.066Z,54.33
2018-02-16T10:10:18.606Z,45.17
2018-02-16T10:12:51.159Z,44.97
2018-02-16T10:15:23.696Z,44.73
2018-02-16T10:17:56.206Z,49.93
2018-02-16T10:20:28.736Z,43.53
2018-02-16T10:23:01.246Z,44.53
2018-02-16T10:25:33.792Z,46.33
2018-02-16T10:28:06.329Z,40.30
2018-02-16T10:30:38.865Z,40.20
2018-02-16T10:33:11.382Z,41.83
2018-02-16T10:35:43.903Z,43.90
2018-02-16T10:38:16.419Z,31.47
2018-02-16T10:40:48.959Z,38.53
2018-02-16T10:43:21.475Z,41.07
2018-02-16T10:45:54.001Z,37.33
2018-02-16T10:48:26.517Z,36.97
2018-02-16T10:50:59.051Z,42.50
2018-02-16T10:53:31.569Z,40.20
2018-02-16T10:56:04.105Z,43.67
2018-02-16T10:58:36.607Z,36.30
2018-02-16T11:01:14.712Z,35.17
2018-02-16T11:03:52.851Z,32.17
2018-02-16T11:06:30.947Z,35.87
2018-02-16T11:09:08.952Z,35.63
2018-02-16T11:11:41.500Z,33.67
2018-02-16T11:14:14.007Z,37.73
2018-02-16T11:16:46.564Z,31.50
2018-02-16T11:19:19.078Z,38.30
2018-02-16T11:21:51.605Z,34.37
2018-02-16T11:24:24.113Z,33.63
2018-02-16T11:26:56.645Z,34.50
2018-02-16T11:29:29.145Z,32.10
2018-02-16T11:32:01.798Z,32.20
2018-02-16T11:34:34.304Z,34.00
2018-02-16T11:37:06.835Z,30.73
2018-02-16T11:39:39.339Z,33.80
2018-02-16T11:42:11.882Z,32.97
2018-02-16T11:44:44.423Z,28.50
2018-02-16T11:47:17.046Z,26.77
2018-02-16T11:49:49.559Z,33.33
2018-02-16T11:52:22.133Z,28.10
2018-02-16T11:54:54.668Z,32.23
2018-02-16T11:57:27.210Z,32.43
2018-02-16T11:59:59.732Z,23.70
2018-02-16T12:02:32.280Z,33.20
2018-02-16T12:05:04.817Z,25.70
2018-02-16T12:07:37.347Z,23.93
2018-02-16T12:10:09.876Z,34.47
2018-02-16T12:12:42.399Z,25.63
2018-02-16T12:15:14.924Z,28.13
2018-02-16T12:17:47.450Z,24.57
2018-02-16T12:20:19.959Z,21.70
2018-02-16T12:22:52.509Z,28.63
2018-02-16T12:25:25.047Z,26.97
2018-02-16T12:27:57.574Z,22.00
2018-02-16T12:30:30.105Z,23.53
2018-02-16T12:33:02.633Z,28.00
2018-02-16T12:35:35.144Z,26.17
2018-02-16T12:38:07.689Z,26.73
2018-02-16T12:40:40.212Z,25.53
2018-02-16T12:43:12.754Z,21.67
2018-02-16T12:45:45.266Z,20.53
2018-02-16T12:48:17.789Z,22.13
2018-02-16T12:50:50.313Z,23.30
2018-02-16T12:53:22.843Z,23.60
2018-02-16T12:55:55.364Z,24.20
2018-02-16T12:58:27.959Z,17.20
2018-02-16T13:01:00.455Z,17.27
2018-02-16T13:03:32.968Z,19.60
2018-02-16T13:06:05.833Z,18.10
2018-02-16T13:08:38.700Z,15.43
2018-02-16T13:11:11.310Z,17.03
2018-02-16T13:13:43.964Z,19.73
2018-02-16T13:16:16.501Z,12.97
2018-02-16T13:18:49.134Z,16.43
2018-02-16T13:21:22.255Z,17.13
2018-02-16T13:23:54.945Z,15.37
2018-02-16T13:26:27.862Z,14.90
2018-02-16T13:29:00.719Z,17.23
2018-02-16T13:31:33.461Z,11.93
2018-02-16T13:34:06.125Z,17.83
2018-02-16T13:36:38.997Z,12.60
2018-02-16T13:39:11.631Z,12.33
2018-02-16T13:41:44.210Z,17.30
2018-02-16T13:44:16.728Z,18.27
2018-02-16T13:46:49.549Z,17.87
2018-02-16T13:49:22.603Z,11.43
2018-02-16T13:51:55.167Z,14.43
2018-02-16T13:54:27.807Z,17.70
2018-02-16T13:57:00.405Z,16.23
2018-02-16T13:59:33.001Z,21.50
2018-02-16T14:02:05.524Z,10.23
2018-02-16T14:04:38.047Z,17.37
2018-02-16T14:07:10.576Z,14.10
2018-02-16T14:09:43.208Z,15.13
2018-02-16T14:12:15.739Z,13.20
2018-02-16T14:14:48.507Z,18.03
2018-02-16T14:17:21.038Z,13.10
2018-02-16T14:19:53.942Z,20.87
2018-02-16T14:22:26.512Z,11.90
2018-02-16T14:24:59.024Z,14.53
2018-02-16T14:27:31.541Z,11.07
2018-02-16T14:30:04.084Z,13.27
2018-02-16T14:32:36.628Z,16.80
2018-02-16T14:35:09.146Z,15.50
2018-02-16T14:37:41.672Z,15.67
2018-02-16T14:40:14.203Z,18.27
2018-02-16T14:42:46.839Z,13.77
2018-02-16T14:45:19.431Z,17.33
2018-02-16T14:47:52.418Z,11.97
2018-02-16T14:50:25.405Z,14.57
2018-02-16T14:52:57.994Z,12.37
2018-02-16T14:55:30.500Z,14.43
2018-02-16T14:58:03.222Z,12.30
2018-02-16T15:00:35.865Z,16.40
2018-02-16T15:03:08.445Z,14.03
2018-02-16T15:05:41.216Z,10.47
2018-02-16T15:08:13.906Z,11.03
2018-02-16T15:10:46.590Z,13.03
2018-02-16T15:13:19.118Z,12.87
2018-02-16T15:15:51.617Z,15.67
2018-02-16T15:18:24.140Z,19.27
2018-02-16T15:20:56.986Z,15.13
2018-02-16T15:23:30.847Z,19.23
2018-02-16T15:26:03.367Z,22.80
2018-02-16T15:28:36.148Z,19.23
2018-02-16T15:31:09.134Z,23.40
2018-02-16T15:33:41.822Z,15.43
2018-02-16T15:36:14.400Z,18.00
2018-02-16T15:38:46.922Z,16.83
2018-02-16T15:41:19.659Z,25.50
2018-02-16T15:43:52.549Z,15.77
2018-02-16T15:46:25.130Z,24.87
2018-02-16T15:48:57.958Z,26.33
2018-02-16T15:51:30.702Z,13.17
2018-02-16T15:54:03.789Z,15.73
2018-02-16T15:56:36.485Z,23.27
2018-02-16T15:59:09.250Z,15.00
2018-02-16T16:01:41.777Z,17.80
2018-02-16T16:04:14.502Z,19.23
2018-02-16T16:06:47.268Z,21.00
2018-02-16T16:09:19.869Z,18.80
2018-02-16T16:11:52.510Z,15.97
2018-02-16T16:14:25.484Z,18.47
2018-02-16T16:16:58.359Z,29.70
2018-02-16T16:19:30.931Z,24.33
2018-02-16T16:22:03.672Z,19.27
2018-02-16T16:24:36.437Z,22.33
2018-02-16T16:27:09.113Z,14.57
2018-02-16T16:29:42.822Z,16.97
2018-02-16T16:32:15.854Z,19.03
2018-02-16T16:34:48.589Z,16.30
2018-02-16T16:37:21.473Z,19.93
2018-02-16T16:39:54.325Z,17.07
2018-02-16T16:42:26.838Z,21.10
2018-02-16T16:44:59.337Z,18.80
2018-02-16T16:47:31.863Z,21.13
2018-02-16T16:50:04.362Z,15.17
2018-02-16T16:52:36.883Z,19.13
2018-02-16T16:55:09.387Z,16.73
2018-02-16T16:57:41.926Z,23.43
2018-02-16T17:00:14.444Z,17.90
2018-02-16T17:02:46.974Z,16.83
2018-02-16T17:05:19.488Z,14.87
2018-02-16T17:07:52.028Z,20.40
2018-02-16T17:10:24.520Z,16.57
2018-02-16T17:12:57.053Z,13.73
2018-02-16T17:15:29.548Z,17.67
2018-02-16T17:18:02.068Z,25.83
2018-02-16T17:20:34.560Z,21.97
2018-02-16T17:23:07.110Z,22.83
2018-02-16T17:25:39.619Z,16.53
2018-02-16T17:28:12.167Z,19.53
2018-02-16T17:30:44.702Z,16.93
2018-02-16T17:33:17.236Z,19.27
2018-02-16T17:35:49.759Z,17.50
2018-02-16T17:38:22.279Z,20.97
2018-02-16T17:40:54.772Z,18.80
2018-02-16T17:43:27.305Z,19.33
2018-02-16T17:45:59.812Z,18.27
2018-02-16T17:48:32.387Z,20.50
2018-02-16T17:51:04.927Z,22.20
2018-02-16T17:53:37.450Z,16.83
2018-02-16T17:56:11.112Z,24.33
2018-02-16T17:58:43.637Z,22.77
2018-02-16T18:01:17.164Z,23.37
2018-02-16T18:03:49.723Z,20.97
2018-02-16T18:06:22.298Z,20.90
2018-02-16T18:08:54.829Z,30.80
2018-02-16T18:11:27.343Z,24.80
2018-02-16T18:13:59.864Z,39.80
2018-02-16T18:16:32.362Z,26.77
2018-02-16T18:19:04.881Z,21.47
2018-02-16T18:21:37.389Z,18.77
2018-02-16T18:24:09.925Z,16.20
2018-02-16T18:26:42.422Z,13.80
2018-02-16T18:29:14.945Z,18.33
2018-02-16T18:31:47.445Z,21.13
2018-02-16T18:34:20.001Z,21.47
2018-02-16T18:36:52.536Z,19.03
2018-02-16T18:39:25.093Z,15.90
2018-02-16T18:41:57.958Z,14.90
2018-02-16T18:44:30.530Z,13.33
2018-02-16T18:47:03.032Z,18.97
2018-02-16T18:49:35.545Z,21.63
2018-02-16T18:52:08.045Z,14.93
2018-02-16T18:54:40.879Z,20.50
2018-02-16T18:57:13.440Z,25.10
2018-02-16T18:59:45.954Z,22.93
2018-02-16T19:02:18.458Z,20.53
2018-02-16T19:04:50.977Z,18.33
2018-02-16T19:07:23.480Z,21.63
2018-02-16T19:09:56.024Z,13.80
2018-02-16T19:12:28.530Z,14.67
2018-02-16T19:15:01.051Z,20.83
2018-02-16T19:17:33.560Z,21.07
2018-02-16T19:20:06.245Z,19.03
2018-02-16T19:22:38.786Z,21.07
2018-02-16T19:25:11.329Z,23.30
2018-02-16T19:27:43.843Z,17.07
2018-02-16T19:30:16.368Z,18.57
2018-02-16T19:32:49.436Z,20.37
2018-02-16T19:35:21.945Z,28.20
2018-02-16T19:37:54.749Z,18.67
2018-02-16T19:40:27.712Z,29.87
2018-02-16T19:43:00.390Z,40.03
2018-02-16T19:45:33.176Z,36.17
2018-02-16T19:48:06.623Z,30.43
2018-02-16T19:50:40.657Z,39.23
2018-02-16T19:53:13.660Z,33.07
2018-02-16T19:55:46.268Z,43.30
2018-02-16T19:58:18.789Z,34.03
2018-02-16T20:00:51.752Z,26.97
2018-02-16T20:03:24.882Z,25.60
2018-02-16T20:05:57.475Z,19.43
2018-02-16T20:08:30.016Z,30.57
2018-02-16T20:11:02.517Z,27.30
2018-02-16T20:13:35.038Z,27.87
2018-02-16T20:16:07.545Z,27.57
2018-02-16T20:18:40.733Z,22.97
2018-02-16T20:21:13.241Z,23.57
2018-02-16T20:23:45.763Z,19.97
2018-02-16T20:26:18.281Z,29.10
2018-02-16T20:28:51.203Z,21.90
2018-02-16T20:31:24.601Z,20.53
2018-02-16T20:33:57.426Z,17.60
2018-02-16T20:36:30.012Z,19.53
2018-02-16T20:39:02.536Z,20.10
2018-02-16T20:41:35.298Z,15.00
2018-02-16T20:44:07.881Z,18.33
2018-02-16T20:46:40.388Z,16.50
2018-02-16T20:49:12.911Z,27.80
2018-02-16T20:51:45.563Z,23.93
2018-02-16T20:54:18.101Z,16.73
2018-02-16T20:56:50.639Z,16.70
2018-02-16T20:59:23.154Z,19.97
2018-02-16T21:01:59.618Z,16.20
2018-02-16T21:04:32.150Z,16.37
2018-02-16T21:07:04.661Z,17.83
2018-02-16T21:09:37.174Z,16.20
2018-02-16T21:12:09.678Z,19.17
2018-02-16T21:14:42.226Z,20.20
2018-02-16T21:17:18.374Z,23.50
2018-02-16T21:19:50.895Z,63.93
2018-02-16T21:22:23.395Z,41.23
2018-02-16T21:24:55.925Z,41.27
2018-02-16T21:27:28.712Z,44.97
2018-02-16T21:30:01.293Z,26.30
2018-02-16T21:32:33.892Z,17.23
2018-02-16T21:35:06.744Z,15.83
2018-02-16T21:37:40.360Z,23.37
2018-02-16T21:40:12.934Z,23.10
2018-02-16T21:42:45.482Z,24.80
2018-02-16T21:45:18.107Z,16.70
2018-02-16T21:47:50.708Z,18.77
2018-02-16T21:50:23.252Z,22.53
2018-02-16T21:52:55.748Z,19.43
2018-02-16T21:55:28.356Z,21.63
2018-02-16T21:58:01.053Z,25.40
2018-02-16T22:00:33.868Z,16.70
2018-02-16T22:03:06.429Z,16.97
2018-02-16T22:05:39.145Z,14.83
2018-02-16T22:08:11.751Z,13.37
2018-02-16T22:10:44.524Z,14.43
2018-02-16T22:13:17.610Z,12.80
2018-02-16T22:15:50.284Z,15.77
2018-02-16T22:18:23.116Z,24.37
2018-02-16T22:20:55.751Z,16.07
2018-02-16T22:23:28.640Z,15.20
2018-02-16T22:26:01.166Z,18.90
2018-02-16T22:28:33.676Z,16.03
2018-02-16T22:31:06.211Z,23.47
2018-02-16T22:33:38.704Z,16.70
2018-02-16T22:36:11.681Z,22.43
2018-02-16T22:38:44.188Z,13.00
2018-02-16T22:41:16.893Z,17.80
2018-02-16T22:43:49.461Z,12.37
2018-02-16T22:46:22.363Z,18.73
2018-02-16T22:48:55.301Z,16.00
2018-02-16T22:51:28.114Z,15.67
2018-02-16T22:54:00.810Z,12.63
2018-02-16T22:56:33.485Z,10.60
2018-02-16T22:59:06.244Z,17.20
2018-02-16T23:01:38.940Z,15.77
2018-02-16T23:04:11.477Z,13.67
2018-02-16T23:06:44.021Z,15.90
2018-02-16T23:09:16.523Z,14.67
2018-02-16T23:11:49.112Z,21.47
2018-02-16T23:14:21.614Z,20.30
2018-02-16T23:16:54.148Z,16.93
2018-02-16T23:19:26.676Z,16.47
2018-02-16T23:21:59.182Z,15.83
2018-02-16T23:24:31.724Z,12.47
2018-02-16T23:27:04.236Z,11.87
2018-02-16T23:29:36.822Z,17.47
2018-02-16T23:32:09.378Z,11.27
2018-02-16T23:34:41.903Z,15.50
2018-02-16T23:37:14.394Z,9.53
2018-02-16T23:39:46.910Z,9.73
2018-02-16T23:42:19.361Z,19.43
2018-02-16T23:44:51.868Z,16.80
2018-02-16T23:47:24.376Z,19.23
2018-02-16T23:49:56.901Z,15.40
2018-02-16T23:52:29.411Z,14.50
2018-02-16T23:57:40.700Z,20.70
